EDW22WA EGLL-LSZH
Flight info
| Callsign | EDW22WA |
|---|---|
| Flight time | 1h 14m |
| Altitude | 29000 |
| Route | DET L6 DVR UL9 KONAN DCT KOK DCT SISGA DCT RITAX DCT KRH M150 LAMGO/N0480F270 T721 SUL/N0465F250 T721 RILAX |
| Aircraft | A359/H-SDE2E3GHIJ3J4J5LM1ORWXY/LB1D1 |
Departure
| Time | 2026-05-04 21:01 |
|---|---|
| Airport | London Heathrow Airport (EGLL) |
Arrival
| Time | 2026-05-04 22:15 |
|---|---|
| Airport | Zürich Airport (LSZH) |
| Time | Latitude | Longitude | Altitude | Speed | Heading |
|---|---|---|---|---|---|
| 2026-05-04 20:27 | 51.47187 | -0.44197 | 95 ft | 0 kts | 268° |
| 2026-05-04 20:46 | 51.47187 | -0.44196 | 66 ft | 1 kts | 268° |
| 2026-05-04 20:46 | 51.47188 | -0.44170 | 96 ft | 2 kts | 268° |
| 2026-05-04 20:47 | 51.47188 | -0.44143 | 93 ft | 2 kts | 268° |
| 2026-05-04 20:47 | 51.47189 | -0.44117 | 93 ft | 2 kts | 267° |
| 2026-05-04 20:47 | 51.47194 | -0.44092 | 95 ft | 2 kts | 223° |
| 2026-05-04 20:47 | 51.47207 | -0.44077 | 93 ft | 2 kts | 207° |
| 2026-05-04 20:48 | 51.47222 | -0.44067 | 93 ft | 2 kts | 197° |
| 2026-05-04 20:48 | 51.47236 | -0.44062 | 93 ft | 1 kts | 187° |
| 2026-05-04 20:48 | 51.47238 | -0.44061 | 94 ft | 0 kts | 185° |
| 2026-05-04 20:52 | 51.47237 | -0.44061 | 94 ft | 1 kts | 185° |
| 2026-05-04 20:52 | 51.47228 | -0.44062 | 95 ft | 3 kts | 181° |
| 2026-05-04 20:52 | 51.47194 | -0.44061 | 97 ft | 7 kts | 178° |
| 2026-05-04 20:52 | 51.47079 | -0.44057 | 93 ft | 26 kts | 179° |
| 2026-05-04 20:53 | 51.46887 | -0.44050 | 94 ft | 29 kts | 179° |
| 2026-05-04 20:53 | 51.46717 | -0.44056 | 91 ft | 25 kts | 188° |
| 2026-05-04 20:53 | 51.46661 | -0.44192 | 93 ft | 12 kts | 272° |
| 2026-05-04 20:53 | 51.46664 | -0.44333 | 91 ft | 13 kts | 271° |
| 2026-05-04 20:54 | 51.46666 | -0.44494 | 93 ft | 15 kts | 270° |
| 2026-05-04 20:54 | 51.46664 | -0.44672 | 95 ft | 17 kts | 269° |
| 2026-05-04 20:54 | 51.46663 | -0.44874 | 96 ft | 20 kts | 270° |
| 2026-05-04 20:54 | 51.46662 | -0.45167 | 93 ft | 36 kts | 270° |
| 2026-05-04 20:55 | 51.46661 | -0.45589 | 87 ft | 39 kts | 269° |
| 2026-05-04 20:55 | 51.46660 | -0.45805 | 88 ft | 0 kts | 270° |
| 2026-05-04 20:55 | 51.46660 | -0.45838 | 92 ft | 7 kts | 270° |
| 2026-05-04 20:56 | 51.46660 | -0.45933 | 91 ft | 10 kts | 269° |
| 2026-05-04 20:56 | 51.46659 | -0.46063 | 93 ft | 13 kts | 269° |
| 2026-05-04 20:56 | 51.46658 | -0.46217 | 95 ft | 15 kts | 270° |
| 2026-05-04 20:56 | 51.46659 | -0.46405 | 97 ft | 23 kts | 270° |
| 2026-05-04 20:57 | 51.46659 | -0.46674 | 99 ft | 25 kts | 270° |
| 2026-05-04 20:57 | 51.46658 | -0.47041 | 95 ft | 37 kts | 270° |
| 2026-05-04 20:57 | 51.46658 | -0.47468 | 89 ft | 40 kts | 270° |
| 2026-05-04 20:57 | 51.46654 | -0.47844 | 88 ft | 26 kts | 269° |
| 2026-05-04 20:58 | 51.46652 | -0.48079 | 92 ft | 0 kts | 269° |
| 2026-05-04 20:59 | 51.46652 | -0.48172 | 93 ft | 13 kts | 270° |
| 2026-05-04 20:59 | 51.46652 | -0.48330 | 94 ft | 17 kts | 270° |
| 2026-05-04 20:59 | 51.46651 | -0.48615 | 94 ft | 28 kts | 269° |
| 2026-05-04 20:59 | 51.46553 | -0.48778 | 92 ft | 17 kts | 184° |
| 2026-05-04 21:00 | 51.46493 | -0.48719 | 95 ft | 9 kts | 117° |
| 2026-05-04 21:00 | 51.46481 | -0.48626 | 94 ft | 8 kts | 88° |
| 2026-05-04 21:00 | 51.46481 | -0.48271 | 93 ft | 69 kts | 90° |
| 2026-05-04 21:00 | 51.46488 | -0.47110 | 91 ft | 133 kts | 90° |
| 2026-05-04 21:01 | 51.46491 | -0.45308 | 217 ft | 188 kts | 92° |
| 2026-05-04 21:01 | 51.46524 | -0.43059 | 1087 ft | 218 kts | 85° |
| 2026-05-04 21:01 | 51.46404 | -0.40404 | 2055 ft | 260 kts | 101° |
| 2026-05-04 21:01 | 51.45576 | -0.37728 | 3081 ft | 275 kts | 127° |
| 2026-05-04 21:02 | 51.44519 | -0.35241 | 4345 ft | 266 kts | 113° |
| 2026-05-04 21:02 | 51.43847 | -0.32495 | 5269 ft | 267 kts | 108° |
| 2026-05-04 21:02 | 51.43253 | -0.29612 | 5805 ft | 274 kts | 107° |
| 2026-05-04 21:02 | 51.42695 | -0.26702 | 5988 ft | 275 kts | 105° |
| 2026-05-04 21:03 | 51.42269 | -0.23699 | 5998 ft | 276 kts | 101° |
| 2026-05-04 21:03 | 51.41889 | -0.20707 | 6029 ft | 277 kts | 101° |
| 2026-05-04 21:03 | 51.41491 | -0.17657 | 6044 ft | 277 kts | 101° |
| 2026-05-04 21:03 | 51.41090 | -0.14660 | 6103 ft | 277 kts | 102° |
| 2026-05-04 21:04 | 51.40680 | -0.11662 | 6520 ft | 278 kts | 102° |
| 2026-05-04 21:04 | 51.40241 | -0.08606 | 7130 ft | 279 kts | 105° |
| 2026-05-04 21:04 | 51.39763 | -0.05594 | 7749 ft | 280 kts | 106° |
| 2026-05-04 21:04 | 51.39291 | -0.02565 | 8385 ft | 282 kts | 105° |
| 2026-05-04 21:05 | 51.38831 | 0.00501 | 9030 ft | 284 kts | 105° |
| 2026-05-04 21:05 | 51.38376 | 0.03612 | 9697 ft | 286 kts | 105° |
| 2026-05-04 21:05 | 51.37929 | 0.06708 | 10323 ft | 291 kts | 105° |
| 2026-05-04 21:05 | 51.37460 | 0.09964 | 10948 ft | 308 kts | 104° |
| 2026-05-04 21:06 | 51.36959 | 0.13378 | 11580 ft | 324 kts | 105° |
| 2026-05-04 21:06 | 51.36427 | 0.16965 | 12221 ft | 339 kts | 104° |
| 2026-05-04 21:06 | 51.35877 | 0.20732 | 12878 ft | 353 kts | 104° |
| 2026-05-04 21:06 | 51.35317 | 0.24635 | 13549 ft | 361 kts | 104° |
| 2026-05-04 21:07 | 51.34755 | 0.28553 | 14183 ft | 364 kts | 104° |
| 2026-05-04 21:07 | 51.34186 | 0.32510 | 14765 ft | 366 kts | 104° |
| 2026-05-04 21:07 | 51.33611 | 0.36489 | 15377 ft | 370 kts | 104° |
| 2026-05-04 21:07 | 51.33027 | 0.40520 | 16004 ft | 374 kts | 105° |
| 2026-05-04 21:08 | 51.32436 | 0.44586 | 16649 ft | 377 kts | 105° |
| 2026-05-04 21:08 | 51.31840 | 0.48682 | 17303 ft | 381 kts | 105° |
| 2026-05-04 21:08 | 51.31230 | 0.52862 | 17979 ft | 385 kts | 105° |
| 2026-05-04 21:08 | 51.30622 | 0.57003 | 18606 ft | 389 kts | 105° |
| 2026-05-04 21:09 | 51.29989 | 0.61287 | 19211 ft | 393 kts | 106° |
| 2026-05-04 21:09 | 51.29274 | 0.65487 | 19819 ft | 396 kts | 109° |
| 2026-05-04 21:09 | 51.28462 | 0.69674 | 20439 ft | 400 kts | 110° |
| 2026-05-04 21:09 | 51.27605 | 0.73942 | 21076 ft | 404 kts | 110° |
| 2026-05-04 21:10 | 51.26750 | 0.78242 | 21728 ft | 409 kts | 110° |
| 2026-05-04 21:10 | 51.25905 | 0.82596 | 22392 ft | 413 kts | 110° |
| 2026-05-04 21:10 | 51.25067 | 0.87008 | 23073 ft | 417 kts | 110° |
| 2026-05-04 21:10 | 51.24237 | 0.91447 | 23740 ft | 422 kts | 109° |
| 2026-05-04 21:11 | 51.23393 | 0.96008 | 24324 ft | 426 kts | 109° |
| 2026-05-04 21:11 | 51.22550 | 1.00565 | 24935 ft | 429 kts | 110° |
| 2026-05-04 21:11 | 51.21709 | 1.05106 | 25544 ft | 432 kts | 110° |
| 2026-05-04 21:11 | 51.20847 | 1.09741 | 26181 ft | 436 kts | 110° |
| 2026-05-04 21:12 | 51.19980 | 1.14387 | 26816 ft | 438 kts | 110° |
| 2026-05-04 21:12 | 51.19112 | 1.19019 | 27461 ft | 441 kts | 110° |
| 2026-05-04 21:12 | 51.18233 | 1.23690 | 28132 ft | 442 kts | 110° |
| 2026-05-04 21:12 | 51.17337 | 1.28438 | 28761 ft | 445 kts | 110° |
| 2026-05-04 21:13 | 51.16462 | 1.33211 | 29002 ft | 457 kts | 108° |
| 2026-05-04 21:13 | 51.15875 | 1.38274 | 29043 ft | 474 kts | 100° |
| 2026-05-04 21:13 | 51.15519 | 1.43552 | 29020 ft | 486 kts | 98° |
| 2026-05-04 21:13 | 51.15241 | 1.48905 | 29019 ft | 487 kts | 97° |
| 2026-05-04 21:14 | 51.14769 | 1.59686 | 29012 ft | 486 kts | 97° |
| 2026-05-04 21:14 | 51.14281 | 1.70431 | 29015 ft | 486 kts | 97° |
| 2026-05-04 21:15 | 51.13755 | 1.81119 | 29024 ft | 486 kts | 98° |
| 2026-05-04 21:15 | 51.13203 | 1.91847 | 29011 ft | 486 kts | 98° |
| 2026-05-04 21:16 | 51.12643 | 2.02553 | 29018 ft | 486 kts | 98° |
| 2026-05-04 21:16 | 51.12076 | 2.13266 | 29014 ft | 486 kts | 98° |
| 2026-05-04 21:17 | 51.11492 | 2.23995 | 29011 ft | 486 kts | 98° |
| 2026-05-04 21:17 | 51.10903 | 2.34676 | 29008 ft | 485 kts | 98° |
| 2026-05-04 21:18 | 51.10306 | 2.45336 | 29006 ft | 485 kts | 98° |
| 2026-05-04 21:18 | 51.09822 | 2.56088 | 29009 ft | 485 kts | 95° |
| 2026-05-04 21:19 | 51.08676 | 2.66571 | 29013 ft | 481 kts | 110° |
| 2026-05-04 21:19 | 51.05933 | 2.76199 | 29016 ft | 479 kts | 118° |
| 2026-05-04 21:20 | 51.02805 | 2.85572 | 29011 ft | 479 kts | 120° |
| 2026-05-04 21:20 | 50.99644 | 2.94865 | 29005 ft | 479 kts | 120° |
| 2026-05-04 21:21 | 50.96490 | 3.04210 | 28996 ft | 479 kts | 119° |
| 2026-05-04 21:21 | 50.93358 | 3.13533 | 28985 ft | 479 kts | 119° |
| 2026-05-04 21:22 | 50.90228 | 3.22834 | 28978 ft | 479 kts | 119° |
| 2026-05-04 21:22 | 50.87614 | 3.30570 | 28974 ft | 479 kts | 119° |
| 2026-05-04 21:23 | 50.83944 | 3.41385 | 28974 ft | 479 kts | 119° |
| 2026-05-04 21:23 | 50.80781 | 3.50664 | 28972 ft | 479 kts | 119° |
| 2026-05-04 21:24 | 50.78139 | 3.58397 | 28972 ft | 480 kts | 119° |
| 2026-05-04 21:24 | 50.74965 | 3.67653 | 28970 ft | 480 kts | 120° |
| 2026-05-04 21:25 | 50.71758 | 3.76966 | 28967 ft | 481 kts | 120° |
| 2026-05-04 21:25 | 50.68560 | 3.86221 | 28965 ft | 482 kts | 120° |
| 2026-05-04 21:26 | 50.65336 | 3.95523 | 28962 ft | 483 kts | 120° |
| 2026-05-04 21:26 | 50.62113 | 4.04790 | 28963 ft | 484 kts | 120° |
| 2026-05-04 21:27 | 50.59043 | 4.14256 | 28962 ft | 486 kts | 117° |
| 2026-05-04 21:27 | 50.56252 | 4.23902 | 28965 ft | 487 kts | 116° |
| 2026-05-04 21:28 | 50.53435 | 4.33565 | 28964 ft | 487 kts | 117° |
| 2026-05-04 21:28 | 50.50555 | 4.43193 | 28966 ft | 487 kts | 118° |
| 2026-05-04 21:29 | 50.47647 | 4.52783 | 28968 ft | 487 kts | 118° |
| 2026-05-04 21:29 | 50.44718 | 4.62396 | 28964 ft | 487 kts | 118° |
| 2026-05-04 21:30 | 50.41778 | 4.72017 | 28964 ft | 488 kts | 118° |
| 2026-05-04 21:30 | 50.38834 | 4.81618 | 28959 ft | 489 kts | 119° |
| 2026-05-04 21:31 | 50.34404 | 4.95992 | 28958 ft | 490 kts | 119° |
| 2026-05-04 21:32 | 50.31431 | 5.05592 | 28959 ft | 490 kts | 120° |
| 2026-05-04 21:32 | 50.28449 | 5.15184 | 28959 ft | 491 kts | 120° |
| 2026-05-04 21:33 | 50.25446 | 5.24809 | 28959 ft | 491 kts | 120° |
| 2026-05-04 21:33 | 50.22456 | 5.34356 | 28955 ft | 491 kts | 120° |
| 2026-05-04 21:34 | 50.19454 | 5.43906 | 28957 ft | 491 kts | 120° |
| 2026-05-04 21:34 | 50.16428 | 5.53493 | 28957 ft | 490 kts | 120° |
| 2026-05-04 21:35 | 50.13414 | 5.63004 | 28960 ft | 490 kts | 120° |
| 2026-05-04 21:35 | 50.10383 | 5.72532 | 28961 ft | 489 kts | 120° |
| 2026-05-04 21:36 | 50.07355 | 5.82013 | 28962 ft | 489 kts | 120° |
| 2026-05-04 21:36 | 50.04074 | 5.91211 | 28963 ft | 486 kts | 124° |
| 2026-05-04 21:37 | 50.00591 | 6.00251 | 28958 ft | 486 kts | 125° |
| 2026-05-04 21:37 | 49.97150 | 6.09259 | 28960 ft | 486 kts | 124° |
| 2026-05-04 21:38 | 49.93739 | 6.18311 | 28954 ft | 485 kts | 124° |
| 2026-05-04 21:38 | 49.90347 | 6.27339 | 28963 ft | 484 kts | 124° |
| 2026-05-04 21:39 | 49.86956 | 6.36332 | 28962 ft | 482 kts | 124° |
| 2026-05-04 21:39 | 49.83566 | 6.45283 | 28961 ft | 480 kts | 125° |
| 2026-05-04 21:40 | 49.80167 | 6.54221 | 28960 ft | 479 kts | 125° |
| 2026-05-04 21:40 | 49.76784 | 6.63086 | 28964 ft | 478 kts | 125° |
| 2026-05-04 21:41 | 49.73409 | 6.71901 | 28962 ft | 478 kts | 125° |
| 2026-05-04 21:41 | 49.70005 | 6.80764 | 28964 ft | 477 kts | 125° |
| 2026-05-04 21:42 | 49.66628 | 6.89525 | 28967 ft | 477 kts | 125° |
| 2026-05-04 21:42 | 49.63215 | 6.98349 | 28977 ft | 477 kts | 126° |
| 2026-05-04 21:43 | 49.59806 | 7.07137 | 28989 ft | 476 kts | 126° |
| 2026-05-04 21:43 | 49.56406 | 7.15869 | 29000 ft | 476 kts | 126° |
| 2026-05-04 21:44 | 49.53003 | 7.24582 | 28989 ft | 477 kts | 126° |
| 2026-05-04 21:44 | 49.49562 | 7.33360 | 28976 ft | 477 kts | 126° |
| 2026-05-04 21:45 | 49.46134 | 7.42079 | 28972 ft | 477 kts | 126° |
| 2026-05-04 21:45 | 49.42703 | 7.50776 | 28974 ft | 477 kts | 126° |
| 2026-05-04 21:46 | 49.39253 | 7.59494 | 28972 ft | 477 kts | 126° |
| 2026-05-04 21:46 | 49.37517 | 7.63870 | 28785 ft | 477 kts | 126° |
| 2026-05-04 21:46 | 49.35798 | 7.68194 | 28293 ft | 477 kts | 126° |
| 2026-05-04 21:46 | 49.34067 | 7.72540 | 27762 ft | 479 kts | 125° |
| 2026-05-04 21:47 | 49.32321 | 7.76915 | 27220 ft | 478 kts | 125° |
| 2026-05-04 21:47 | 49.30606 | 7.81209 | 26724 ft | 475 kts | 125° |
| 2026-05-04 21:47 | 49.28878 | 7.85533 | 26211 ft | 472 kts | 125° |
| 2026-05-04 21:47 | 49.27171 | 7.89796 | 25711 ft | 468 kts | 125° |
| 2026-05-04 21:48 | 49.25482 | 7.94008 | 25227 ft | 465 kts | 124° |
| 2026-05-04 21:48 | 49.23773 | 7.98261 | 24741 ft | 462 kts | 124° |
| 2026-05-04 21:48 | 49.22101 | 8.02414 | 24278 ft | 460 kts | 124° |
| 2026-05-04 21:48 | 49.20414 | 8.06595 | 23800 ft | 457 kts | 124° |
| 2026-05-04 21:49 | 49.18759 | 8.10690 | 23298 ft | 455 kts | 124° |
| 2026-05-04 21:49 | 49.17109 | 8.14768 | 22751 ft | 452 kts | 124° |
| 2026-05-04 21:49 | 49.15458 | 8.18848 | 22220 ft | 449 kts | 124° |
| 2026-05-04 21:49 | 49.13802 | 8.22930 | 21692 ft | 445 kts | 124° |
| 2026-05-04 21:50 | 49.12184 | 8.26916 | 21183 ft | 442 kts | 124° |
| 2026-05-04 21:50 | 49.10574 | 8.30872 | 20673 ft | 438 kts | 124° |
| 2026-05-04 21:50 | 49.08965 | 8.34821 | 20169 ft | 435 kts | 124° |
| 2026-05-04 21:50 | 49.07389 | 8.38682 | 19682 ft | 431 kts | 124° |
| 2026-05-04 21:51 | 49.05798 | 8.42574 | 19234 ft | 427 kts | 124° |
| 2026-05-04 21:51 | 49.04235 | 8.46392 | 19023 ft | 424 kts | 124° |
| 2026-05-04 21:51 | 49.02676 | 8.50195 | 18991 ft | 422 kts | 124° |
| 2026-05-04 21:51 | 49.01138 | 8.53941 | 18989 ft | 417 kts | 124° |
| 2026-05-04 21:52 | 48.99549 | 8.57614 | 18986 ft | 414 kts | 128° |
| 2026-05-04 21:52 | 48.97812 | 8.61075 | 18991 ft | 412 kts | 130° |
| 2026-05-04 21:52 | 48.95996 | 8.64509 | 18992 ft | 412 kts | 131° |
| 2026-05-04 21:52 | 48.94161 | 8.67878 | 18848 ft | 417 kts | 132° |
| 2026-05-04 21:53 | 48.92273 | 8.71193 | 18505 ft | 417 kts | 136° |
| 2026-05-04 21:53 | 48.90042 | 8.74006 | 18128 ft | 413 kts | 149° |
| 2026-05-04 21:53 | 48.87494 | 8.75861 | 17736 ft | 408 kts | 163° |
| 2026-05-04 21:53 | 48.84692 | 8.76598 | 17362 ft | 403 kts | 179° |
| 2026-05-04 21:54 | 48.81922 | 8.76353 | 17100 ft | 401 kts | 187° |
| 2026-05-04 21:54 | 48.79142 | 8.75735 | 16835 ft | 400 kts | 190° |
| 2026-05-04 21:54 | 48.76433 | 8.74963 | 16574 ft | 399 kts | 191° |
| 2026-05-04 21:54 | 48.73693 | 8.74128 | 16322 ft | 398 kts | 192° |
| 2026-05-04 21:55 | 48.70987 | 8.73310 | 16075 ft | 397 kts | 192° |
| 2026-05-04 21:55 | 48.68295 | 8.72524 | 15823 ft | 395 kts | 191° |
| 2026-05-04 21:55 | 48.65570 | 8.71759 | 15575 ft | 394 kts | 191° |
| 2026-05-04 21:55 | 48.62882 | 8.71026 | 15326 ft | 393 kts | 191° |
| 2026-05-04 21:56 | 48.60186 | 8.70305 | 15091 ft | 392 kts | 191° |
| 2026-05-04 21:56 | 48.57501 | 8.69595 | 14845 ft | 391 kts | 191° |
| 2026-05-04 21:56 | 48.54834 | 8.68891 | 14600 ft | 390 kts | 191° |
| 2026-05-04 21:56 | 48.52161 | 8.68186 | 14362 ft | 389 kts | 191° |
| 2026-05-04 21:57 | 48.49526 | 8.67490 | 14083 ft | 388 kts | 191° |
| 2026-05-04 21:57 | 48.46856 | 8.66784 | 13601 ft | 386 kts | 191° |
| 2026-05-04 21:57 | 48.44245 | 8.66094 | 13079 ft | 383 kts | 191° |
| 2026-05-04 21:57 | 48.41602 | 8.65395 | 12549 ft | 380 kts | 191° |
| 2026-05-04 21:58 | 48.39039 | 8.64719 | 12039 ft | 376 kts | 191° |
| 2026-05-04 21:58 | 48.36457 | 8.64028 | 11533 ft | 372 kts | 191° |
| 2026-05-04 21:58 | 48.33939 | 8.63295 | 11044 ft | 368 kts | 192° |
| 2026-05-04 21:58 | 48.31451 | 8.62532 | 10561 ft | 365 kts | 192° |
| 2026-05-04 21:59 | 48.28970 | 8.61760 | 10159 ft | 361 kts | 192° |
| 2026-05-04 21:59 | 48.26529 | 8.61003 | 10022 ft | 360 kts | 192° |
| 2026-05-04 21:59 | 48.24076 | 8.60249 | 10004 ft | 355 kts | 192° |
| 2026-05-04 21:59 | 48.21722 | 8.59532 | 9998 ft | 331 kts | 192° |
| 2026-05-04 22:00 | 48.19552 | 8.58879 | 9960 ft | 310 kts | 192° |
| 2026-05-04 22:00 | 48.17496 | 8.58261 | 9713 ft | 297 kts | 192° |
| 2026-05-04 22:00 | 48.15505 | 8.57662 | 9448 ft | 287 kts | 192° |
| 2026-05-04 22:00 | 48.13563 | 8.57082 | 9182 ft | 278 kts | 192° |
| 2026-05-04 22:01 | 48.11698 | 8.56527 | 8918 ft | 269 kts | 192° |
| 2026-05-04 22:01 | 48.09891 | 8.55990 | 8657 ft | 262 kts | 192° |
| 2026-05-04 22:01 | 48.08133 | 8.55466 | 8404 ft | 256 kts | 192° |
| 2026-05-04 22:01 | 48.06392 | 8.54948 | 8138 ft | 250 kts | 192° |
| 2026-05-04 22:02 | 48.04714 | 8.54450 | 7877 ft | 245 kts | 192° |
| 2026-05-04 22:02 | 48.03057 | 8.53957 | 7631 ft | 240 kts | 192° |
| 2026-05-04 22:02 | 48.01432 | 8.53474 | 7376 ft | 236 kts | 192° |
| 2026-05-04 22:02 | 47.99835 | 8.53000 | 7129 ft | 232 kts | 192° |
| 2026-05-04 22:03 | 47.98288 | 8.52542 | 7024 ft | 221 kts | 192° |
| 2026-05-04 22:03 | 47.96819 | 8.52107 | 6963 ft | 207 kts | 192° |
| 2026-05-04 22:03 | 47.95899 | 8.51834 | 6814 ft | 202 kts | 192° |
| 2026-05-04 22:03 | 47.94089 | 8.51298 | 6488 ft | 196 kts | 191° |
| 2026-05-04 22:04 | 47.93196 | 8.51031 | 6324 ft | 193 kts | 191° |
| 2026-05-04 22:04 | 47.91905 | 8.50639 | 6062 ft | 189 kts | 192° |
| 2026-05-04 22:04 | 47.90629 | 8.50252 | 5801 ft | 186 kts | 192° |
| 2026-05-04 22:04 | 47.89359 | 8.49867 | 5549 ft | 183 kts | 192° |
| 2026-05-04 22:05 | 47.88113 | 8.49489 | 5292 ft | 184 kts | 192° |
| 2026-05-04 22:05 | 47.86810 | 8.49093 | 5082 ft | 197 kts | 193° |
| 2026-05-04 22:05 | 47.85454 | 8.48682 | 5023 ft | 201 kts | 193° |
| 2026-05-04 22:05 | 47.84066 | 8.48261 | 5019 ft | 202 kts | 192° |
| 2026-05-04 22:06 | 47.82692 | 8.47846 | 5017 ft | 202 kts | 193° |
| 2026-05-04 22:06 | 47.81321 | 8.47432 | 5021 ft | 202 kts | 193° |
| 2026-05-04 22:06 | 47.79952 | 8.47019 | 5013 ft | 202 kts | 193° |
| 2026-05-04 22:06 | 47.78564 | 8.46600 | 5021 ft | 202 kts | 193° |
| 2026-05-04 22:07 | 47.77200 | 8.46189 | 5016 ft | 202 kts | 193° |
| 2026-05-04 22:07 | 47.75809 | 8.45768 | 5016 ft | 202 kts | 192° |
| 2026-05-04 22:07 | 47.74432 | 8.45347 | 5012 ft | 202 kts | 193° |
| 2026-05-04 22:07 | 47.73057 | 8.44933 | 5014 ft | 202 kts | 192° |
| 2026-05-04 22:08 | 47.71682 | 8.44523 | 5009 ft | 202 kts | 192° |
| 2026-05-04 22:08 | 47.70310 | 8.44099 | 5016 ft | 202 kts | 193° |
| 2026-05-04 22:08 | 47.68991 | 8.43381 | 4943 ft | 202 kts | 208° |
| 2026-05-04 22:08 | 47.67888 | 8.42120 | 4642 ft | 201 kts | 225° |
| 2026-05-04 22:09 | 47.66925 | 8.40593 | 4268 ft | 202 kts | 229° |
| 2026-05-04 22:09 | 47.65995 | 8.39064 | 4025 ft | 196 kts | 228° |
| 2026-05-04 22:09 | 47.65097 | 8.37603 | 4005 ft | 190 kts | 228° |
| 2026-05-04 22:09 | 47.64181 | 8.36202 | 4000 ft | 190 kts | 223° |
| 2026-05-04 22:10 | 47.63032 | 8.35295 | 4000 ft | 187 kts | 194° |
| 2026-05-04 22:10 | 47.61796 | 8.35389 | 3998 ft | 171 kts | 162° |
| 2026-05-04 22:10 | 47.60836 | 8.36239 | 3996 ft | 155 kts | 140° |
| 2026-05-04 22:10 | 47.60062 | 8.37289 | 3998 ft | 146 kts | 137° |
| 2026-05-04 22:11 | 47.59346 | 8.38298 | 3998 ft | 141 kts | 137° |
| 2026-05-04 22:11 | 47.58628 | 8.39302 | 4004 ft | 140 kts | 138° |
| 2026-05-04 22:11 | 47.57923 | 8.40280 | 4004 ft | 140 kts | 138° |
| 2026-05-04 22:11 | 47.57213 | 8.41268 | 4003 ft | 141 kts | 138° |
| 2026-05-04 22:12 | 47.56495 | 8.42255 | 3969 ft | 142 kts | 138° |
| 2026-05-04 22:12 | 47.55757 | 8.43268 | 3746 ft | 144 kts | 138° |
| 2026-05-04 22:12 | 47.55028 | 8.44267 | 3465 ft | 143 kts | 138° |
| 2026-05-04 22:12 | 47.54295 | 8.45273 | 3116 ft | 146 kts | 138° |
| 2026-05-04 22:13 | 47.53539 | 8.46306 | 2741 ft | 148 kts | 138° |
| 2026-05-04 22:13 | 47.52783 | 8.47343 | 2395 ft | 147 kts | 138° |
| 2026-05-04 22:13 | 47.52043 | 8.48362 | 2123 ft | 143 kts | 137° |
| 2026-05-04 22:13 | 47.51338 | 8.49323 | 1988 ft | 133 kts | 137° |
| 2026-05-04 22:14 | 47.50641 | 8.50273 | 1994 ft | 146 kts | 137° |
| 2026-05-04 22:14 | 47.49885 | 8.51306 | 1872 ft | 148 kts | 137° |
| 2026-05-04 22:14 | 47.49157 | 8.52298 | 1692 ft | 139 kts | 136° |
| 2026-05-04 22:14 | 47.48458 | 8.53255 | 1498 ft | 134 kts | 139° |
| 2026-05-04 22:15 | 47.47794 | 8.54159 | 1411 ft | 124 kts | 137° |
| 2026-05-04 22:15 | 47.47318 | 8.54831 | 1413 ft | 56 kts | 138° |
| 2026-05-04 22:15 | 47.47224 | 8.54955 | 1410 ft | 1 kts | 138° |
| 2026-05-04 22:15 | 47.47189 | 8.55001 | 1408 ft | 12 kts | 138° |
| 2026-05-04 22:16 | 47.47120 | 8.55091 | 1408 ft | 15 kts | 138° |
| 2026-05-04 22:16 | 47.47024 | 8.55220 | 1408 ft | 27 kts | 137° |
| 2026-05-04 22:16 | 47.46881 | 8.55416 | 1409 ft | 29 kts | 137° |
| 2026-05-04 22:16 | 47.46726 | 8.55607 | 1412 ft | 29 kts | 148° |
| 2026-05-04 22:17 | 47.46532 | 8.55701 | 1409 ft | 30 kts | 166° |
| 2026-05-04 22:17 | 47.46395 | 8.55764 | 1411 ft | 0 kts | 152° |
| 2026-05-04 22:17 | 47.46389 | 8.55762 | 1409 ft | 2 kts | 178° |
| 2026-05-04 22:17 | 47.46332 | 8.55765 | 1407 ft | 13 kts | 178° |
| 2026-05-04 22:18 | 47.46250 | 8.55751 | 1411 ft | 6 kts | 218° |
| 2026-05-04 22:18 | 47.46244 | 8.55709 | 1411 ft | 6 kts | 264° |
| 2026-05-04 22:18 | 47.46234 | 8.55618 | 1413 ft | 7 kts | 237° |
| 2026-05-04 22:18 | 47.46207 | 8.55601 | 1412 ft | 5 kts | 196° |
| 2026-05-04 22:19 | 47.46176 | 8.55593 | 1410 ft | 0 kts | 188° |